EZY44T EGGW-EGPH
Flight info
| Callsign | EZY44T |
|---|---|
| Flight time | 0h 56m |
| Altitude | 32000 |
| Route | OLNEY T420 TNT UN57 POL UN601 RIBEL DCT INPIP |
| Aircraft | A320/M-SDE3FGHIRWY/LB1 |
Departure
| Time | 2026-04-22 21:13 |
|---|---|
| Airport | London Luton Airport (EGGW) |
Arrival
| Time | 2026-04-22 22:09 |
|---|---|
| Airport | Edinburgh Airport (EGPH) |
| Time | Latitude | Longitude | Altitude | Speed | Heading |
|---|---|---|---|---|---|
| 2026-04-22 20:43 | 51.88088 | -0.37361 | 509 ft | 0 kts | 341° |
| 2026-04-22 21:00 | 51.88087 | -0.37360 | 508 ft | 1 kts | 341° |
| 2026-04-22 21:01 | 51.88064 | -0.37348 | 508 ft | 4 kts | 342° |
| 2026-04-22 21:01 | 51.88039 | -0.37338 | 508 ft | 4 kts | 4° |
| 2026-04-22 21:01 | 51.88016 | -0.37350 | 508 ft | 4 kts | 55° |
| 2026-04-22 21:01 | 51.88010 | -0.37369 | 508 ft | 1 kts | 71° |
| 2026-04-22 21:02 | 51.88010 | -0.37371 | 508 ft | 0 kts | 71° |
| 2026-04-22 21:06 | 51.88010 | -0.37367 | 508 ft | 2 kts | 71° |
| 2026-04-22 21:06 | 51.88027 | -0.37284 | 508 ft | 11 kts | 71° |
| 2026-04-22 21:07 | 51.88041 | -0.37174 | 508 ft | 12 kts | 99° |
| 2026-04-22 21:07 | 51.87958 | -0.37101 | 509 ft | 18 kts | 162° |
| 2026-04-22 21:07 | 51.87821 | -0.37026 | 514 ft | 23 kts | 162° |
| 2026-04-22 21:07 | 51.87717 | -0.36972 | 521 ft | 11 kts | 161° |
| 2026-04-22 21:08 | 51.87642 | -0.36966 | 524 ft | 12 kts | 214° |
| 2026-04-22 21:08 | 51.87600 | -0.37138 | 522 ft | 20 kts | 255° |
| 2026-04-22 21:08 | 51.87579 | -0.37337 | 522 ft | 19 kts | 273° |
| 2026-04-22 21:08 | 51.87582 | -0.37408 | 522 ft | 1 kts | 262° |
| 2026-04-22 21:09 | 51.87582 | -0.37411 | 523 ft | 0 kts | 260° |
| 2026-04-22 21:09 | 51.87580 | -0.37423 | 523 ft | 1 kts | 250° |
| 2026-04-22 21:10 | 51.87532 | -0.37480 | 521 ft | 14 kts | 209° |
| 2026-04-22 21:10 | 51.87484 | -0.37641 | 523 ft | 20 kts | 254° |
| 2026-04-22 21:10 | 51.87440 | -0.37902 | 523 ft | 18 kts | 255° |
| 2026-04-22 21:10 | 51.87405 | -0.38030 | 524 ft | 14 kts | 227° |
| 2026-04-22 21:11 | 51.87291 | -0.38112 | 523 ft | 11 kts | 172° |
| 2026-04-22 21:11 | 51.87226 | -0.38220 | 523 ft | 20 kts | 270° |
| 2026-04-22 21:11 | 51.87200 | -0.38341 | 520 ft | 11 kts | 168° |
| 2026-04-22 21:11 | 51.87199 | -0.38289 | 521 ft | 8 kts | 55° |
| 2026-04-22 21:12 | 51.87235 | -0.38160 | 524 ft | 20 kts | 75° |
| 2026-04-22 21:12 | 51.87324 | -0.37652 | 521 ft | 82 kts | 75° |
| 2026-04-22 21:12 | 51.87541 | -0.36385 | 521 ft | 150 kts | 75° |
| 2026-04-22 21:12 | 51.87871 | -0.34512 | 574 ft | 192 kts | 73° |
| 2026-04-22 21:13 | 51.88260 | -0.32360 | 1121 ft | 207 kts | 73° |
| 2026-04-22 21:13 | 51.88683 | -0.30041 | 1753 ft | 228 kts | 73° |
| 2026-04-22 21:13 | 51.89196 | -0.27575 | 2426 ft | 229 kts | 64° |
| 2026-04-22 21:13 | 51.90145 | -0.25571 | 3048 ft | 229 kts | 32° |
| 2026-04-22 21:14 | 51.91702 | -0.24768 | 3285 ft | 251 kts | 357° |
| 2026-04-22 21:14 | 51.93349 | -0.25705 | 3414 ft | 259 kts | 320° |
| 2026-04-22 21:14 | 51.94330 | -0.28115 | 3719 ft | 267 kts | 282° |
| 2026-04-22 21:14 | 51.94260 | -0.31103 | 4724 ft | 267 kts | 257° |
| 2026-04-22 21:15 | 51.93744 | -0.34017 | 5433 ft | 269 kts | 252° |
| 2026-04-22 21:15 | 51.93171 | -0.36931 | 5622 ft | 271 kts | 255° |
| 2026-04-22 21:15 | 51.93054 | -0.39938 | 5636 ft | 270 kts | 283° |
| 2026-04-22 21:15 | 51.93934 | -0.42531 | 5641 ft | 269 kts | 313° |
| 2026-04-22 21:16 | 51.95240 | -0.44707 | 5639 ft | 270 kts | 314° |
| 2026-04-22 21:16 | 51.96560 | -0.46925 | 6268 ft | 274 kts | 313° |
| 2026-04-22 21:16 | 51.97878 | -0.49157 | 7262 ft | 276 kts | 313° |
| 2026-04-22 21:16 | 51.99212 | -0.51418 | 8187 ft | 279 kts | 313° |
| 2026-04-22 21:17 | 52.00580 | -0.53688 | 9081 ft | 283 kts | 314° |
| 2026-04-22 21:17 | 52.01988 | -0.55966 | 9886 ft | 292 kts | 315° |
| 2026-04-22 21:17 | 52.03482 | -0.58367 | 10283 ft | 312 kts | 315° |
| 2026-04-22 21:17 | 52.05028 | -0.60851 | 11007 ft | 320 kts | 315° |
| 2026-04-22 21:18 | 52.06619 | -0.63409 | 11816 ft | 324 kts | 315° |
| 2026-04-22 21:18 | 52.08228 | -0.66014 | 12615 ft | 328 kts | 315° |
| 2026-04-22 21:18 | 52.09853 | -0.68651 | 13387 ft | 332 kts | 315° |
| 2026-04-22 21:18 | 52.11499 | -0.71327 | 14129 ft | 336 kts | 315° |
| 2026-04-22 21:19 | 52.13265 | -0.73845 | 14849 ft | 340 kts | 324° |
| 2026-04-22 21:19 | 52.15285 | -0.75903 | 15541 ft | 344 kts | 328° |
| 2026-04-22 21:19 | 52.17342 | -0.77919 | 16230 ft | 347 kts | 328° |
| 2026-04-22 21:19 | 52.19397 | -0.79938 | 16895 ft | 351 kts | 328° |
| 2026-04-22 21:20 | 52.21493 | -0.82007 | 17546 ft | 354 kts | 328° |
| 2026-04-22 21:20 | 52.23607 | -0.84104 | 18202 ft | 358 kts | 328° |
| 2026-04-22 21:20 | 52.25743 | -0.86228 | 18817 ft | 361 kts | 328° |
| 2026-04-22 21:20 | 52.27897 | -0.88373 | 19425 ft | 365 kts | 328° |
| 2026-04-22 21:21 | 52.30075 | -0.90540 | 19881 ft | 368 kts | 328° |
| 2026-04-22 21:21 | 52.32267 | -0.92720 | 19986 ft | 368 kts | 328° |
| 2026-04-22 21:21 | 52.34459 | -0.94899 | 20005 ft | 368 kts | 328° |
| 2026-04-22 21:21 | 52.36616 | -0.97049 | 20012 ft | 369 kts | 328° |
| 2026-04-22 21:22 | 52.38816 | -0.99246 | 20520 ft | 372 kts | 328° |
| 2026-04-22 21:22 | 52.41032 | -1.01462 | 21115 ft | 375 kts | 328° |
| 2026-04-22 21:22 | 52.43264 | -1.03699 | 21677 ft | 378 kts | 328° |
| 2026-04-22 21:22 | 52.45521 | -1.05964 | 22207 ft | 381 kts | 328° |
| 2026-04-22 21:23 | 52.47789 | -1.08242 | 22727 ft | 384 kts | 328° |
| 2026-04-22 21:23 | 52.50081 | -1.10543 | 23234 ft | 387 kts | 328° |
| 2026-04-22 21:23 | 52.52386 | -1.12859 | 23737 ft | 390 kts | 328° |
| 2026-04-22 21:23 | 52.54710 | -1.15198 | 24219 ft | 393 kts | 328° |
| 2026-04-22 21:24 | 52.57018 | -1.17525 | 24692 ft | 396 kts | 328° |
| 2026-04-22 21:24 | 52.59370 | -1.19897 | 25154 ft | 399 kts | 328° |
| 2026-04-22 21:24 | 52.61745 | -1.22295 | 25593 ft | 401 kts | 328° |
| 2026-04-22 21:24 | 52.64130 | -1.24705 | 26026 ft | 404 kts | 328° |
| 2026-04-22 21:25 | 52.66538 | -1.27142 | 26451 ft | 407 kts | 328° |
| 2026-04-22 21:25 | 52.68958 | -1.29591 | 26869 ft | 410 kts | 328° |
| 2026-04-22 21:25 | 52.71391 | -1.32065 | 27261 ft | 413 kts | 328° |
| 2026-04-22 21:25 | 52.73841 | -1.34562 | 27669 ft | 415 kts | 328° |
| 2026-04-22 21:26 | 52.75470 | -1.36225 | 27935 ft | 417 kts | 328° |
| 2026-04-22 21:26 | 52.78747 | -1.39573 | 28440 ft | 420 kts | 328° |
| 2026-04-22 21:26 | 52.81237 | -1.42117 | 28808 ft | 422 kts | 328° |
| 2026-04-22 21:26 | 52.83743 | -1.44679 | 29167 ft | 425 kts | 328° |
| 2026-04-22 21:27 | 52.86258 | -1.47254 | 29522 ft | 427 kts | 328° |
| 2026-04-22 21:27 | 52.87930 | -1.48970 | 29760 ft | 428 kts | 328° |
| 2026-04-22 21:27 | 52.90471 | -1.51578 | 30092 ft | 431 kts | 328° |
| 2026-04-22 21:27 | 52.93889 | -1.55094 | 30543 ft | 434 kts | 328° |
| 2026-04-22 21:28 | 52.96457 | -1.57742 | 30866 ft | 436 kts | 328° |
| 2026-04-22 21:28 | 52.99005 | -1.60375 | 31181 ft | 438 kts | 328° |
| 2026-04-22 21:28 | 53.01580 | -1.63042 | 31505 ft | 440 kts | 328° |
| 2026-04-22 21:28 | 53.04180 | -1.65734 | 31866 ft | 441 kts | 329° |
| 2026-04-22 21:29 | 53.06923 | -1.67974 | 31983 ft | 439 kts | 339° |
| 2026-04-22 21:29 | 53.09742 | -1.69721 | 32010 ft | 424 kts | 339° |
| 2026-04-22 21:29 | 53.15336 | -1.73163 | 32009 ft | 432 kts | 339° |
| 2026-04-22 21:30 | 53.19071 | -1.75469 | 32009 ft | 433 kts | 339° |
| 2026-04-22 21:30 | 53.26594 | -1.80128 | 32009 ft | 433 kts | 339° |
| 2026-04-22 21:31 | 53.32236 | -1.83658 | 32009 ft | 433 kts | 339° |
| 2026-04-22 21:31 | 53.37884 | -1.87212 | 32005 ft | 434 kts | 339° |
| 2026-04-22 21:32 | 53.43531 | -1.90765 | 31999 ft | 434 kts | 339° |
| 2026-04-22 21:32 | 53.48224 | -1.93720 | 32002 ft | 433 kts | 339° |
| 2026-04-22 21:33 | 53.53867 | -1.97280 | 31999 ft | 433 kts | 339° |
| 2026-04-22 21:33 | 53.60425 | -2.01435 | 32001 ft | 433 kts | 339° |
| 2026-04-22 21:34 | 53.66062 | -2.05019 | 31998 ft | 433 kts | 339° |
| 2026-04-22 21:34 | 53.71701 | -2.08618 | 31999 ft | 433 kts | 339° |
| 2026-04-22 21:35 | 53.77294 | -2.12222 | 31998 ft | 433 kts | 338° |
| 2026-04-22 21:35 | 53.82878 | -2.16035 | 31998 ft | 433 kts | 337° |
| 2026-04-22 21:36 | 53.88450 | -2.19910 | 32001 ft | 433 kts | 338° |
| 2026-04-22 21:36 | 53.93989 | -2.23736 | 32000 ft | 432 kts | 338° |
| 2026-04-22 21:37 | 53.96771 | -2.25648 | 31548 ft | 431 kts | 338° |
| 2026-04-22 21:37 | 53.99548 | -2.27554 | 30809 ft | 432 kts | 338° |
| 2026-04-22 21:37 | 54.02341 | -2.29470 | 30045 ft | 433 kts | 338° |
| 2026-04-22 21:37 | 54.05142 | -2.31396 | 29267 ft | 435 kts | 338° |
| 2026-04-22 21:38 | 54.07943 | -2.33325 | 28463 ft | 436 kts | 338° |
| 2026-04-22 21:38 | 54.10757 | -2.35269 | 28054 ft | 436 kts | 338° |
| 2026-04-22 21:38 | 54.13543 | -2.37197 | 27866 ft | 439 kts | 338° |
| 2026-04-22 21:38 | 54.16378 | -2.39165 | 27615 ft | 441 kts | 338° |
| 2026-04-22 21:39 | 54.19223 | -2.41143 | 27266 ft | 442 kts | 338° |
| 2026-04-22 21:39 | 54.22064 | -2.43125 | 26914 ft | 441 kts | 338° |
| 2026-04-22 21:39 | 54.24902 | -2.45110 | 26563 ft | 439 kts | 337° |
| 2026-04-22 21:39 | 54.27721 | -2.47080 | 26194 ft | 436 kts | 338° |
| 2026-04-22 21:40 | 54.30523 | -2.49037 | 25864 ft | 433 kts | 338° |
| 2026-04-22 21:40 | 54.33304 | -2.50979 | 25545 ft | 431 kts | 338° |
| 2026-04-22 21:40 | 54.36070 | -2.52914 | 25215 ft | 430 kts | 338° |
| 2026-04-22 21:40 | 54.38795 | -2.54825 | 24893 ft | 428 kts | 337° |
| 2026-04-22 21:41 | 54.41543 | -2.56757 | 24564 ft | 426 kts | 337° |
| 2026-04-22 21:41 | 54.44274 | -2.58679 | 24245 ft | 423 kts | 337° |
| 2026-04-22 21:41 | 54.46986 | -2.60590 | 23918 ft | 420 kts | 337° |
| 2026-04-22 21:41 | 54.49690 | -2.62497 | 23593 ft | 419 kts | 337° |
| 2026-04-22 21:42 | 54.52378 | -2.64396 | 23256 ft | 417 kts | 337° |
| 2026-04-22 21:42 | 54.55054 | -2.66292 | 22942 ft | 415 kts | 337° |
| 2026-04-22 21:42 | 54.57713 | -2.68184 | 22617 ft | 412 kts | 337° |
| 2026-04-22 21:42 | 54.60358 | -2.70067 | 22292 ft | 410 kts | 337° |
| 2026-04-22 21:43 | 54.62955 | -2.71915 | 21975 ft | 408 kts | 337° |
| 2026-04-22 21:43 | 54.65571 | -2.73774 | 21648 ft | 406 kts | 337° |
| 2026-04-22 21:43 | 54.68173 | -2.75625 | 21320 ft | 404 kts | 337° |
| 2026-04-22 21:43 | 54.70769 | -2.77474 | 20995 ft | 402 kts | 337° |
| 2026-04-22 21:44 | 54.73343 | -2.79316 | 20670 ft | 400 kts | 337° |
| 2026-04-22 21:44 | 54.75905 | -2.81154 | 20344 ft | 398 kts | 337° |
| 2026-04-22 21:44 | 54.78456 | -2.82983 | 20018 ft | 396 kts | 337° |
| 2026-04-22 21:44 | 54.80996 | -2.84804 | 19694 ft | 394 kts | 337° |
| 2026-04-22 21:45 | 54.83519 | -2.86618 | 19368 ft | 392 kts | 337° |
| 2026-04-22 21:45 | 54.86028 | -2.88428 | 19041 ft | 390 kts | 337° |
| 2026-04-22 21:45 | 54.88492 | -2.90207 | 18722 ft | 388 kts | 337° |
| 2026-04-22 21:45 | 54.90979 | -2.92001 | 18403 ft | 386 kts | 337° |
| 2026-04-22 21:46 | 54.93452 | -2.93787 | 18071 ft | 384 kts | 337° |
| 2026-04-22 21:46 | 54.95913 | -2.95568 | 17745 ft | 382 kts | 337° |
| 2026-04-22 21:46 | 54.98359 | -2.97340 | 17432 ft | 380 kts | 337° |
| 2026-04-22 21:46 | 55.00790 | -2.99109 | 17097 ft | 378 kts | 337° |
| 2026-04-22 21:47 | 55.03213 | -3.00874 | 16770 ft | 376 kts | 337° |
| 2026-04-22 21:47 | 55.05594 | -3.02610 | 16447 ft | 375 kts | 337° |
| 2026-04-22 21:47 | 55.07994 | -3.04362 | 16123 ft | 373 kts | 337° |
| 2026-04-22 21:47 | 55.10385 | -3.06108 | 15798 ft | 372 kts | 337° |
| 2026-04-22 21:48 | 55.12763 | -3.07842 | 15472 ft | 370 kts | 337° |
| 2026-04-22 21:48 | 55.15134 | -3.09570 | 15147 ft | 368 kts | 337° |
| 2026-04-22 21:48 | 55.17496 | -3.11296 | 14819 ft | 367 kts | 337° |
| 2026-04-22 21:48 | 55.19844 | -3.13017 | 14490 ft | 365 kts | 337° |
| 2026-04-22 21:49 | 55.22182 | -3.14737 | 14171 ft | 363 kts | 337° |
| 2026-04-22 21:49 | 55.24476 | -3.16429 | 13849 ft | 361 kts | 337° |
| 2026-04-22 21:49 | 55.26785 | -3.18138 | 13528 ft | 360 kts | 336° |
| 2026-04-22 21:49 | 55.29126 | -3.19635 | 13182 ft | 358 kts | 346° |
| 2026-04-22 21:50 | 55.30785 | -3.20094 | 12861 ft | 356 kts | 356° |
| 2026-04-22 21:50 | 55.34046 | -3.19785 | 12231 ft | 354 kts | 5° |
| 2026-04-22 21:50 | 55.36494 | -3.19389 | 11755 ft | 352 kts | 5° |
| 2026-04-22 21:50 | 55.38922 | -3.19002 | 11280 ft | 350 kts | 5° |
| 2026-04-22 21:51 | 55.41334 | -3.18624 | 10804 ft | 347 kts | 5° |
| 2026-04-22 21:51 | 55.43732 | -3.18254 | 10328 ft | 345 kts | 5° |
| 2026-04-22 21:51 | 55.46083 | -3.17893 | 9859 ft | 343 kts | 5° |
| 2026-04-22 21:52 | 55.50796 | -3.17165 | 8907 ft | 337 kts | 5° |
| 2026-04-22 21:52 | 55.53116 | -3.16801 | 8427 ft | 331 kts | 5° |
| 2026-04-22 21:52 | 55.55347 | -3.16446 | 7948 ft | 314 kts | 5° |
| 2026-04-22 21:52 | 55.57472 | -3.16109 | 7468 ft | 299 kts | 5° |
| 2026-04-22 21:53 | 55.59503 | -3.15790 | 6990 ft | 287 kts | 5° |
| 2026-04-22 21:53 | 55.61431 | -3.15487 | 6569 ft | 275 kts | 5° |
| 2026-04-22 21:53 | 55.63260 | -3.15197 | 6458 ft | 252 kts | 5° |
| 2026-04-22 21:53 | 55.64928 | -3.14943 | 6475 ft | 234 kts | 2° |
| 2026-04-22 21:54 | 55.66527 | -3.15290 | 6470 ft | 232 kts | 341° |
| 2026-04-22 21:54 | 55.67951 | -3.16586 | 6482 ft | 231 kts | 321° |
| 2026-04-22 21:54 | 55.69042 | -3.18653 | 6482 ft | 230 kts | 302° |
| 2026-04-22 21:54 | 55.69677 | -3.21239 | 6470 ft | 230 kts | 282° |
| 2026-04-22 21:55 | 55.69787 | -3.24049 | 6461 ft | 230 kts | 263° |
| 2026-04-22 21:55 | 55.69397 | -3.26793 | 6294 ft | 229 kts | 251° |
| 2026-04-22 21:55 | 55.68911 | -3.29430 | 6154 ft | 227 kts | 252° |
| 2026-04-22 21:55 | 55.68422 | -3.32109 | 6096 ft | 229 kts | 252° |
| 2026-04-22 21:56 | 55.67935 | -3.34792 | 6030 ft | 229 kts | 252° |
| 2026-04-22 21:56 | 55.67446 | -3.37472 | 5960 ft | 228 kts | 252° |
| 2026-04-22 21:56 | 55.66958 | -3.40148 | 5889 ft | 228 kts | 252° |
| 2026-04-22 21:56 | 55.66468 | -3.42825 | 5818 ft | 228 kts | 252° |
| 2026-04-22 21:57 | 55.65978 | -3.45493 | 5742 ft | 228 kts | 252° |
| 2026-04-22 21:57 | 55.65486 | -3.48158 | 5677 ft | 228 kts | 252° |
| 2026-04-22 21:57 | 55.64996 | -3.50819 | 5607 ft | 227 kts | 252° |
| 2026-04-22 21:57 | 55.64671 | -3.53506 | 5492 ft | 226 kts | 269° |
| 2026-04-22 21:58 | 55.64945 | -3.56229 | 5364 ft | 226 kts | 293° |
| 2026-04-22 21:58 | 55.65811 | -3.58518 | 5245 ft | 226 kts | 316° |
| 2026-04-22 21:58 | 55.66963 | -3.60371 | 5120 ft | 220 kts | 317° |
| 2026-04-22 21:58 | 55.68080 | -3.62165 | 5001 ft | 213 kts | 317° |
| 2026-04-22 21:59 | 55.69154 | -3.63898 | 4903 ft | 205 kts | 318° |
| 2026-04-22 21:59 | 55.70213 | -3.65496 | 4872 ft | 194 kts | 320° |
| 2026-04-22 21:59 | 55.71230 | -3.66968 | 4825 ft | 186 kts | 321° |
| 2026-04-22 21:59 | 55.72234 | -3.68409 | 4627 ft | 185 kts | 321° |
| 2026-04-22 22:00 | 55.73212 | -3.69816 | 4513 ft | 183 kts | 320° |
| 2026-04-22 22:00 | 55.74196 | -3.71238 | 4402 ft | 182 kts | 320° |
| 2026-04-22 22:00 | 55.75174 | -3.72657 | 4300 ft | 182 kts | 320° |
| 2026-04-22 22:00 | 55.76114 | -3.74145 | 4179 ft | 180 kts | 315° |
| 2026-04-22 22:01 | 55.77005 | -3.75717 | 3975 ft | 180 kts | 314° |
| 2026-04-22 22:01 | 55.77883 | -3.77304 | 3791 ft | 180 kts | 314° |
| 2026-04-22 22:01 | 55.78776 | -3.78858 | 3598 ft | 180 kts | 323° |
| 2026-04-22 22:01 | 55.79530 | -3.79424 | 3472 ft | 179 kts | 355° |
| 2026-04-22 22:02 | 55.80954 | -3.78295 | 3193 ft | 178 kts | 57° |
| 2026-04-22 22:02 | 55.81568 | -3.76383 | 2969 ft | 180 kts | 57° |
| 2026-04-22 22:02 | 55.82242 | -3.74502 | 2770 ft | 180 kts | 57° |
| 2026-04-22 22:02 | 55.82906 | -3.72611 | 2587 ft | 180 kts | 58° |
| 2026-04-22 22:03 | 55.83332 | -3.71382 | 2523 ft | 170 kts | 58° |
| 2026-04-22 22:03 | 55.83919 | -3.69680 | 2469 ft | 153 kts | 58° |
| 2026-04-22 22:03 | 55.84449 | -3.68141 | 2461 ft | 141 kts | 58° |
| 2026-04-22 22:03 | 55.84953 | -3.66676 | 2465 ft | 140 kts | 58° |
| 2026-04-22 22:04 | 55.85472 | -3.65164 | 2484 ft | 145 kts | 58° |
| 2026-04-22 22:04 | 55.86170 | -3.63131 | 2482 ft | 145 kts | 58° |
| 2026-04-22 22:04 | 55.86696 | -3.61595 | 2478 ft | 145 kts | 58° |
| 2026-04-22 22:04 | 55.87044 | -3.60580 | 2477 ft | 145 kts | 58° |
| 2026-04-22 22:05 | 55.87568 | -3.59051 | 2476 ft | 145 kts | 58° |
| 2026-04-22 22:05 | 55.88095 | -3.57511 | 2429 ft | 146 kts | 58° |
| 2026-04-22 22:05 | 55.88621 | -3.55973 | 2299 ft | 145 kts | 58° |
| 2026-04-22 22:05 | 55.89144 | -3.54443 | 2128 ft | 145 kts | 58° |
| 2026-04-22 22:06 | 55.89667 | -3.52914 | 1946 ft | 144 kts | 58° |
| 2026-04-22 22:06 | 55.90329 | -3.50972 | 1706 ft | 133 kts | 58° |
| 2026-04-22 22:06 | 55.90652 | -3.50029 | 1556 ft | 130 kts | 58° |
| 2026-04-22 22:06 | 55.91126 | -3.48678 | 1296 ft | 130 kts | 57° |
| 2026-04-22 22:07 | 55.91769 | -3.46886 | 965 ft | 127 kts | 57° |
| 2026-04-22 22:07 | 55.92073 | -3.46000 | 796 ft | 126 kts | 58° |
| 2026-04-22 22:07 | 55.92534 | -3.44649 | 625 ft | 128 kts | 58° |
| 2026-04-22 22:07 | 55.92972 | -3.43277 | 473 ft | 128 kts | 59° |
| 2026-04-22 22:08 | 55.93431 | -3.41907 | 351 ft | 127 kts | 59° |
| 2026-04-22 22:08 | 55.93880 | -3.40572 | 233 ft | 125 kts | 58° |
| 2026-04-22 22:08 | 55.94323 | -3.39256 | 141 ft | 121 kts | 58° |
| 2026-04-22 22:08 | 55.94754 | -3.38006 | 115 ft | 113 kts | 59° |
| 2026-04-22 22:09 | 55.95077 | -3.37024 | 114 ft | 73 kts | 59° |
| 2026-04-22 22:09 | 55.95269 | -3.36459 | 112 ft | 16 kts | 61° |
| 2026-04-22 22:09 | 55.95356 | -3.36202 | 109 ft | 12 kts | 59° |
| 2026-04-22 22:09 | 55.95408 | -3.36050 | 111 ft | 17 kts | 58° |
| 2026-04-22 22:10 | 55.95489 | -3.35808 | 113 ft | 29 kts | 59° |
| 2026-04-22 22:10 | 55.95579 | -3.35527 | 112 ft | 16 kts | 76° |
| 2026-04-22 22:10 | 55.95533 | -3.35470 | 115 ft | 5 kts | 179° |
| 2026-04-22 22:10 | 55.95452 | -3.35402 | 114 ft | 16 kts | 173° |
| 2026-04-22 22:11 | 55.95359 | -3.35612 | 115 ft | 22 kts | 240° |
| 2026-04-22 22:11 | 55.95309 | -3.35760 | 115 ft | 19 kts | 238° |
| 2026-04-22 22:11 | 55.95267 | -3.35884 | 114 ft | 14 kts | 240° |
| 2026-04-22 22:11 | 55.95192 | -3.35963 | 116 ft | 2 kts | 145° |
| 2026-04-22 22:12 | 55.95137 | -3.35904 | 113 ft | 16 kts | 136° |
| 2026-04-22 22:12 | 55.95053 | -3.35795 | 116 ft | 18 kts | 199° |
| 2026-04-22 22:12 | 55.94943 | -3.35850 | 116 ft | 11 kts | 153° |
| 2026-04-22 22:12 | 55.94916 | -3.35802 | 113 ft | 10 kts | 123° |
| 2026-04-22 22:13 | 55.94908 | -3.35776 | 115 ft | 0 kts | 118° |
| 2026-04-22 22:13 | 55.94891 | -3.35756 | 114 ft | 7 kts | 179° |
| 2026-04-22 22:13 | 55.94856 | -3.35783 | 115 ft | 0 kts | 210° |
| 2026-04-22 22:13 | 55.94842 | -3.35798 | 115 ft | 2 kts | 211° |
| 2026-04-22 22:14 | 55.94835 | -3.35805 | 114 ft | 2 kts | 210° |
| 2026-04-22 22:14 | 55.94832 | -3.35808 | 114 ft | 1 kts | 210° |
| 2026-04-22 22:14 | 55.94831 | -3.35809 | 114 ft | 0 kts | 210° |